sensor_id;sensor_type;location;lat;lon;timestamp;pressure;altitude;pressure_sealevel;temperature;humidity
3434;BME280;1730;41.932;25.548;2022-09-21T00:01:07;99194.53;;;15.32;100.00
3434;BME280;1730;41.932;25.548;2022-09-21T00:03:35;99196.78;;;15.44;100.00
3434;BME280;1730;41.932;25.548;2022-09-21T00:06:06;99185.63;;;15.39;100.00
3434;BME280;1730;41.932;25.548;2022-09-21T00:08:35;99205.66;;;15.23;100.00
3434;BME280;1730;41.932;25.548;2022-09-21T00:11:01;99187.78;;;15.28;100.00
3434;BME280;1730;41.932;25.548;2022-09-21T00:13:31;99178.50;;;15.38;100.00
3434;BME280;1730;41.932;25.548;2022-09-21T00:16:00;99178.16;;;15.26;100.00
3434;BME280;1730;41.932;25.548;2022-09-21T00:18:29;99147.50;;;14.88;100.00
3434;BME280;1730;41.932;25.548;2022-09-21T00:20:55;99207.63;;;15.14;100.00
3434;BME280;1730;41.932;25.548;2022-09-21T00:23:21;99199.19;;;14.95;100.00
3434;BME280;1730;41.932;25.548;2022-09-21T00:25:48;99196.13;;;15.12;100.00
3434;BME280;1730;41.932;25.548;2022-09-21T00:28:13;98741.16;;;12.33;100.00
3434;BME280;1730;41.932;25.548;2022-09-21T00:30:40;99195.00;;;15.07;100.00
3434;BME280;1730;41.932;25.548;2022-09-21T00:33:06;99190.28;;;14.86;100.00
3434;BME280;1730;41.932;25.548;2022-09-21T00:35:31;98959.44;;;13.31;100.00
3434;BME280;1730;41.932;25.548;2022-09-21T00:38:01;99150.62;;;14.02;100.00
3434;BME280;1730;41.932;25.548;2022-09-21T00:40:28;99209.47;;;14.47;100.00
3434;BME280;1730;41.932;25.548;2022-09-21T00:43:10;99214.47;;;14.35;100.00
3434;BME280;1730;41.932;25.548;2022-09-21T00:45:36;99236.78;;;14.68;100.00
3434;BME280;1730;41.932;25.548;2022-09-21T00:48:02;99188.50;;;14.93;100.00
3434;BME280;1730;41.932;25.548;2022-09-21T00:50:28;99185.34;;;15.04;100.00
3434;BME280;1730;41.932;25.548;2022-09-21T00:52:56;99178.63;;;15.29;100.00
3434;BME280;1730;41.932;25.548;2022-09-21T00:55:29;99007.06;;;14.23;100.00
3434;BME280;1730;41.932;25.548;2022-09-21T00:58:00;99113.69;;;14.76;100.00
3434;BME280;1730;41.932;25.548;2022-09-21T01:00:27;98668.16;;;12.10;100.00
3434;BME280;1730;41.932;25.548;2022-09-21T01:02:54;99180.47;;;15.14;100.00
3434;BME280;1730;41.932;25.548;2022-09-21T01:05:26;99205.22;;;15.19;100.00
3434;BME280;1730;41.932;25.548;2022-09-21T01:07:53;99165.50;;;15.33;100.00
3434;BME280;1730;41.932;25.548;2022-09-21T01:10:22;99164.00;;;15.30;100.00
3434;BME280;1730;41.932;25.548;2022-09-21T01:18:37;99250.91;;;15.16;100.00
3434;BME280;1730;41.932;25.548;2022-09-21T01:32:35;99180.88;;;14.59;100.00
3434;BME280;1730;41.932;25.548;2022-09-21T01:35:17;99172.81;;;14.66;100.00
3434;BME280;1730;41.932;25.548;2022-09-21T01:38:09;99171.16;;;14.65;100.00
3434;BME280;1730;41.932;25.548;2022-09-21T01:40:47;98546.66;;;10.48;100.00
3434;BME280;1730;41.932;25.548;2022-09-21T01:43:37;99171.59;;;14.54;100.00
3434;BME280;1730;41.932;25.548;2022-09-21T01:46:05;98799.63;;;12.26;100.00
3434;BME280;1730;41.932;25.548;2022-09-21T01:48:38;99182.69;;;14.44;100.00
3434;BME280;1730;41.932;25.548;2022-09-21T01:51:08;99168.47;;;14.42;100.00
3434;BME280;1730;41.932;25.548;2022-09-21T01:53:48;99199.19;;;14.57;100.00
3434;BME280;1730;41.932;25.548;2022-09-21T01:56:50;99153.56;;;14.75;100.00
3434;BME280;1730;41.932;25.548;2022-09-21T02:01:52;99216.63;;;15.00;100.00
3434;BME280;1730;41.932;25.548;2022-09-21T02:04:20;99177.75;;;14.85;100.00
3434;BME280;1730;41.932;25.548;2022-09-21T02:06:46;99149.88;;;14.91;100.00
3434;BME280;1730;41.932;25.548;2022-09-21T02:09:13;99175.97;;;15.07;100.00
3434;BME280;1730;41.932;25.548;2022-09-21T02:11:38;99150.78;;;15.27;100.00
3434;BME280;1730;41.932;25.548;2022-09-21T02:14:10;99174.12;;;15.22;100.00
3434;BME280;1730;41.932;25.548;2022-09-21T02:16:41;99170.25;;;15.02;100.00
3434;BME280;1730;41.932;25.548;2022-09-21T02:19:45;99149.38;;;15.02;100.00
3434;BME280;1730;41.932;25.548;2022-09-21T02:22:30;99234.94;;;14.83;100.00
3434;BME280;1730;41.932;25.548;2022-09-21T02:25:08;99031.47;;;14.23;100.00
3434;BME280;1730;41.932;25.548;2022-09-21T02:27:47;99228.56;;;14.76;100.00
3434;BME280;1730;41.932;25.548;2022-09-21T02:30:25;98398.41;;;10.01;100.00
3434;BME280;1730;41.932;25.548;2022-09-21T02:38:34;99242.56;;;14.42;100.00
3434;BME280;1730;41.932;25.548;2022-09-21T02:41:14;99248.16;;;14.41;100.00
3434;BME280;1730;41.932;25.548;2022-09-21T02:46:40;99258.44;;;14.23;100.00
3434;BME280;1730;41.932;25.548;2022-09-21T02:49:21;99182.75;;;14.36;100.00
3434;BME280;1730;41.932;25.548;2022-09-21T02:51:52;99175.12;;;14.31;100.00
3434;BME280;1730;41.932;25.548;2022-09-21T02:54:25;99178.37;;;14.27;100.00
3434;BME280;1730;41.932;25.548;2022-09-21T02:56:54;99241.91;;;14.10;100.00
3434;BME280;1730;41.932;25.548;2022-09-21T02:59:21;99177.28;;;14.21;100.00
3434;BME280;1730;41.932;25.548;2022-09-21T03:01:48;99170.25;;;14.27;100.00
3434;BME280;1730;41.932;25.548;2022-09-21T03:04:15;99172.78;;;14.28;100.00
3434;BME280;1730;41.932;25.548;2022-09-21T03:06:41;99169.53;;;14.33;100.00
3434;BME280;1730;41.932;25.548;2022-09-21T03:09:07;99175.28;;;14.38;100.00
3434;BME280;1730;41.932;25.548;2022-09-21T03:11:33;99177.31;;;14.59;100.00
3434;BME280;1730;41.932;25.548;2022-09-21T03:14:01;99158.25;;;14.67;100.00
3434;BME280;1730;41.932;25.548;2022-09-21T03:16:30;99190.09;;;14.73;100.00
3434;BME280;1730;41.932;25.548;2022-09-21T03:18:55;99046.81;;;13.93;100.00
3434;BME280;1730;41.932;25.548;2022-09-21T03:21:22;99153.91;;;14.58;100.00
3434;BME280;1730;41.932;25.548;2022-09-21T03:23:47;98979.09;;;13.48;100.00
3434;BME280;1730;41.932;25.548;2022-09-21T03:26:13;99157.31;;;14.37;100.00
3434;BME280;1730;41.932;25.548;2022-09-21T03:28:38;99105.31;;;13.88;100.00
3434;BME280;1730;41.932;25.548;2022-09-21T03:31:04;98169.59;;;8.27;100.00
3434;BME280;1730;41.932;25.548;2022-09-21T03:33:31;99156.03;;;14.25;100.00
3434;BME280;1730;41.932;25.548;2022-09-21T03:35:57;99161.28;;;14.26;100.00
3434;BME280;1730;41.932;25.548;2022-09-21T03:38:23;99147.31;;;14.37;100.00
3434;BME280;1730;41.932;25.548;2022-09-21T03:40:50;98859.00;;;12.42;100.00
3434;BME280;1730;41.932;25.548;2022-09-21T03:43:16;98851.53;;;12.52;100.00
3434;BME280;1730;41.932;25.548;2022-09-21T03:45:42;99142.00;;;14.44;100.00
3434;BME280;1730;41.932;25.548;2022-09-21T03:48:09;99159.16;;;14.59;100.00
3434;BME280;1730;41.932;25.548;2022-09-21T03:50:36;99146.75;;;14.65;100.00
3434;BME280;1730;41.932;25.548;2022-09-21T03:53:03;99155.37;;;14.83;100.00
3434;BME280;1730;41.932;25.548;2022-09-21T03:55:28;99164.59;;;14.59;100.00
3434;BME280;1730;41.932;25.548;2022-09-21T03:57:54;98975.38;;;13.72;100.00
3434;BME280;1730;41.932;25.548;2022-09-21T04:00:20;99151.69;;;14.76;100.00
3434;BME280;1730;41.932;25.548;2022-09-21T04:02:46;99155.00;;;14.86;100.00
3434;BME280;1730;41.932;25.548;2022-09-21T04:05:14;99192.37;;;14.99;100.00
3434;BME280;1730;41.932;25.548;2022-09-21T04:07:41;99161.28;;;15.16;100.00
3434;BME280;1730;41.932;25.548;2022-09-21T04:10:09;99165.31;;;15.20;100.00
3434;BME280;1730;41.932;25.548;2022-09-21T04:12:40;99161.47;;;15.29;100.00
3434;BME280;1730;41.932;25.548;2022-09-21T04:15:12;99164.19;;;15.44;100.00
3434;BME280;1730;41.932;25.548;2022-09-21T04:17:37;99158.25;;;15.40;100.00
3434;BME280;1730;41.932;25.548;2022-09-21T04:20:04;99157.44;;;15.54;100.00
3434;BME280;1730;41.932;25.548;2022-09-21T04:22:30;99211.22;;;15.59;100.00
3434;BME280;1730;41.932;25.548;2022-09-21T04:24:56;98988.13;;;14.38;100.00
3434;BME280;1730;41.932;25.548;2022-09-21T04:27:22;99165.88;;;15.15;100.00
3434;BME280;1730;41.932;25.548;2022-09-21T04:29:48;99160.91;;;15.33;100.00
3434;BME280;1730;41.932;25.548;2022-09-21T04:32:14;99194.72;;;15.16;100.00
3434;BME280;1730;41.932;25.548;2022-09-21T04:34:41;99207.06;;;15.19;100.00
3434;BME280;1730;41.932;25.548;2022-09-21T04:37:08;99202.00;;;15.01;100.00
3434;BME280;1730;41.932;25.548;2022-09-21T04:39:37;99175.69;;;15.02;100.00
3434;BME280;1730;41.932;25.548;2022-09-21T04:42:04;99168.22;;;15.04;100.00
3434;BME280;1730;41.932;25.548;2022-09-21T04:44:30;99177.78;;;15.00;100.00
3434;BME280;1730;41.932;25.548;2022-09-21T04:46:59;98459.84;;;10.60;100.00
3434;BME280;1730;41.932;25.548;2022-09-21T04:49:24;99179.44;;;14.86;100.00
3434;BME280;1730;41.932;25.548;2022-09-21T04:51:50;98892.44;;;13.11;100.00
3434;BME280;1730;41.932;25.548;2022-09-21T04:54:16;99177.78;;;15.00;100.00
3434;BME280;1730;41.932;25.548;2022-09-21T04:56:42;99173.06;;;14.94;100.00
3434;BME280;1730;41.932;25.548;2022-09-21T04:59:08;99164.38;;;14.98;100.00
3434;BME280;1730;41.932;25.548;2022-09-21T05:01:35;99165.78;;;15.23;100.00
3434;BME280;1730;41.932;25.548;2022-09-21T05:04:00;99167.06;;;15.27;100.00
3434;BME280;1730;41.932;25.548;2022-09-21T05:06:31;99185.47;;;15.25;100.00
3434;BME280;1730;41.932;25.548;2022-09-21T05:08:57;99205.31;;;15.11;100.00
3434;BME280;1730;41.932;25.548;2022-09-21T05:11:41;99071.37;;;14.37;100.00
3434;BME280;1730;41.932;25.548;2022-09-21T05:14:07;99197.25;;;15.18;100.00
3434;BME280;1730;41.932;25.548;2022-09-21T05:16:33;99170.37;;;15.08;100.00
3434;BME280;1730;41.932;25.548;2022-09-21T05:18:59;99162.50;;;15.28;100.00
3434;BME280;1730;41.932;25.548;2022-09-21T05:21:25;99161.09;;;15.32;100.00
3434;BME280;1730;41.932;25.548;2022-09-21T05:23:51;99196.59;;;15.30;100.00
3434;BME280;1730;41.932;25.548;2022-09-21T05:26:17;99151.38;;;15.52;100.00
3434;BME280;1730;41.932;25.548;2022-09-21T05:28:43;99170.28;;;15.60;100.00
3434;BME280;1730;41.932;25.548;2022-09-21T05:31:38;99173.44;;;15.49;100.00
3434;BME280;1730;41.932;25.548;2022-09-21T05:37:35;98696.19;;;12.32;100.00
3434;BME280;1730;41.932;25.548;2022-09-21T05:40:03;99215.91;;;15.50;100.00
3434;BME280;1730;41.932;25.548;2022-09-21T05:42:30;99146.06;;;18.62;100.00
3434;BME280;1730;41.932;25.548;2022-09-21T05:44:55;99133.94;;;20.87;100.00
3434;BME280;1730;41.932;25.548;2022-09-21T05:52:42;99140.75;;;21.45;69.29
3434;BME280;1730;41.932;25.548;2022-09-21T05:55:27;99150.78;;;22.06;63.36
3434;BME280;1730;41.932;25.548;2022-09-21T05:57:56;99142.03;;;21.00;65.70
3434;BME280;1730;41.932;25.548;2022-09-21T06:00:37;99148.50;;;21.30;67.31
3434;BME280;1730;41.932;25.548;2022-09-21T06:03:17;99147.63;;;19.99;66.33
3434;BME280;1730;41.932;25.548;2022-09-21T06:05:47;99181.84;;;17.93;84.15
3434;BME280;1730;41.932;25.548;2022-09-21T06:08:12;99038.44;;;16.69;91.87
3434;BME280;1730;41.932;25.548;2022-09-21T06:10:38;99148.78;;;17.27;96.23
3434;BME280;1730;41.932;25.548;2022-09-21T06:13:07;99177.56;;;17.02;98.67
3434;BME280;1730;41.932;25.548;2022-09-21T06:15:33;99177.56;;;16.74;100.00
3434;BME280;1730;41.932;25.548;2022-09-21T06:18:04;99169.50;;;16.94;100.00
3434;BME280;1730;41.932;25.548;2022-09-21T06:20:37;99151.53;;;17.68;99.45
3434;BME280;1730;41.932;25.548;2022-09-21T06:23:05;99169.47;;;17.49;97.24
3434;BME280;1730;41.932;25.548;2022-09-21T06:25:52;98931.84;;;16.03;96.06
3434;BME280;1730;41.932;25.548;2022-09-21T06:28:31;99161.16;;;17.64;95.29
3434;BME280;1730;41.932;25.548;2022-09-21T06:30:57;99164.19;;;17.41;99.99
3434;BME280;1730;41.932;25.548;2022-09-21T06:33:23;99159.16;;;17.51;100.00
3434;BME280;1730;41.932;25.548;2022-09-21T06:36:02;99166.09;;;17.95;98.84
3434;BME280;1730;41.932;25.548;2022-09-21T06:38:31;98673.06;;;14.41;100.00
3434;BME280;1730;41.932;25.548;2022-09-21T06:41:02;99165.69;;;17.98;99.44
3434;BME280;1730;41.932;25.548;2022-09-21T06:43:30;99194.28;;;17.61;100.00
3434;BME280;1730;41.932;25.548;2022-09-21T06:46:00;99189.78;;;17.47;100.00
3434;BME280;1730;41.932;25.548;2022-09-21T06:48:28;99170.75;;;17.19;100.00
3434;BME280;1730;41.932;25.548;2022-09-21T06:50:58;99167.53;;;17.09;100.00
3434;BME280;1730;41.932;25.548;2022-09-21T06:53:24;99155.28;;;17.26;100.00
3434;BME280;1730;41.932;25.548;2022-09-21T06:55:50;99009.91;;;16.37;100.00
3434;BME280;1730;41.932;25.548;2022-09-21T06:58:16;99144.69;;;17.44;100.00
3434;BME280;1730;41.932;25.548;2022-09-21T07:00:42;98925.19;;;16.47;100.00
3434;BME280;1730;41.932;25.548;2022-09-21T07:03:11;99047.84;;;17.01;100.00
3434;BME280;1730;41.932;25.548;2022-09-21T07:05:39;99170.63;;;17.75;100.00
3434;BME280;1730;41.932;25.548;2022-09-21T07:08:08;98889.94;;;15.98;100.00
3434;BME280;1730;41.932;25.548;2022-09-21T07:10:34;99009.69;;;16.60;99.36
3434;BME280;1730;41.932;25.548;2022-09-21T07:13:03;99034.75;;;16.83;100.00
3434;BME280;1730;41.932;25.548;2022-09-21T07:15:30;99006.78;;;16.68;99.35
3434;BME280;1730;41.932;25.548;2022-09-21T07:17:56;99182.16;;;17.36;100.00
3434;BME280;1730;41.932;25.548;2022-09-21T07:20:22;99220.00;;;17.52;100.00
3434;BME280;1730;41.932;25.548;2022-09-21T07:22:49;98915.69;;;15.95;99.74
3434;BME280;1730;41.932;25.548;2022-09-21T07:25:15;99167.66;;;17.63;100.00
3434;BME280;1730;41.932;25.548;2022-09-21T07:27:41;99171.69;;;17.74;100.00
3434;BME280;1730;41.932;25.548;2022-09-21T07:30:08;99169.13;;;17.59;98.30
3434;BME280;1730;41.932;25.548;2022-09-21T07:32:34;99167.72;;;17.83;98.39
3434;BME280;1730;41.932;25.548;2022-09-21T07:37:57;99173.28;;;18.16;94.25
3434;BME280;1730;41.932;25.548;2022-09-21T07:40:23;99002.66;;;17.26;90.91
3434;BME280;1730;41.932;25.548;2022-09-21T07:42:49;99028.53;;;17.50;89.70
3434;BME280;1730;41.932;25.548;2022-09-21T07:45:15;99176.66;;;18.31;85.84
3434;BME280;1730;41.932;25.548;2022-09-21T07:47:40;99192.22;;;18.37;86.29
3434;BME280;1730;41.932;25.548;2022-09-21T07:50:06;99026.69;;;17.70;83.39
3434;BME280;1730;41.932;25.548;2022-09-21T07:52:32;99164.56;;;18.79;81.24
3434;BME280;1730;41.932;25.548;2022-09-21T07:54:58;99155.75;;;18.77;79.15
3434;BME280;1730;41.932;25.548;2022-09-21T07:57:23;98930.84;;;17.67;76.95
3434;BME280;1730;41.932;25.548;2022-09-21T08:02:36;99151.25;;;19.29;74.09
3434;BME280;1730;41.932;25.548;2022-09-21T08:05:02;99141.09;;;19.56;71.16
3434;BME280;1730;41.932;25.548;2022-09-21T08:13:34;99152.19;;;19.74;64.55
3434;BME280;1730;41.932;25.548;2022-09-21T08:16:26;98996.84;;;18.80;64.92
3434;BME280;1730;41.932;25.548;2022-09-21T08:18:51;98544.75;;;15.76;64.12
3434;BME280;1730;41.932;25.548;2022-09-21T08:21:17;99070.59;;;19.89;64.02
3434;BME280;1730;41.932;25.548;2022-09-21T08:23:43;99173.88;;;20.76;60.00
3434;BME280;1730;41.932;25.548;2022-09-21T08:26:11;99152.81;;;20.45;59.39
3434;BME280;1730;41.932;25.548;2022-09-21T08:28:51;99157.69;;;19.61;62.84
3434;BME280;1730;41.932;25.548;2022-09-21T08:31:20;99174.00;;;19.87;59.11
3434;BME280;1730;41.932;25.548;2022-09-21T08:33:47;99005.09;;;19.25;57.21
3434;BME280;1730;41.932;25.548;2022-09-21T08:36:14;99171.22;;;20.38;55.81
3434;BME280;1730;41.932;25.548;2022-09-21T08:39:49;99205.22;;;20.55;55.93
3434;BME280;1730;41.932;25.548;2022-09-21T08:42:57;99227.28;;;20.36;56.04
3434;BME280;1730;41.932;25.548;2022-09-21T08:45:46;99217.41;;;20.91;55.34
3434;BME280;1730;41.932;25.548;2022-09-21T08:51:19;99152.38;;;20.98;55.38
3434;BME280;1730;41.932;25.548;2022-09-21T08:53:51;98999.72;;;19.81;53.15
3434;BME280;1730;41.932;25.548;2022-09-21T08:56:19;99020.03;;;19.98;53.46
3434;BME280;1730;41.932;25.548;2022-09-21T08:58:46;99046.81;;;20.21;52.82
3434;BME280;1730;41.932;25.548;2022-09-21T09:04:37;99055.81;;;21.50;50.51
3434;BME280;1730;41.932;25.548;2022-09-21T09:14:29;99096.22;;;21.25;50.49
3434;BME280;1730;41.932;25.548;2022-09-21T09:17:34;99156.19;;;21.22;51.47
3434;BME280;1730;41.932;25.548;2022-09-21T09:20:33;99143.06;;;21.96;49.66
3434;BME280;1730;41.932;25.548;2022-09-21T09:23:11;99118.13;;;21.07;49.30
3434;BME280;1730;41.932;25.548;2022-09-21T09:25:41;99145.84;;;21.60;49.55
3434;BME280;1730;41.932;25.548;2022-09-21T09:30:58;99099.50;;;21.34;50.05
3434;BME280;1730;41.932;25.548;2022-09-21T09:33:41;99099.72;;;21.50;50.63
3434;BME280;1730;41.932;25.548;2022-09-21T09:59:47;99146.50;;;20.94;47.98
3434;BME280;1730;41.932;25.548;2022-09-21T10:02:18;99110.47;;;22.30;50.70
3434;BME280;1730;41.932;25.548;2022-09-21T10:05:00;99101.66;;;23.67;49.14
3434;BME280;1730;41.932;25.548;2022-09-21T10:07:38;99089.69;;;23.62;46.41
3434;BME280;1730;41.932;25.548;2022-09-21T10:10:39;99108.28;;;23.43;45.65
3434;BME280;1730;41.932;25.548;2022-09-21T10:13:15;99089.84;;;23.84;45.84
3434;BME280;1730;41.932;25.548;2022-09-21T10:15:53;99085.81;;;23.11;45.08
3434;BME280;1730;41.932;25.548;2022-09-21T10:21:34;99092.63;;;24.90;41.49
3434;BME280;1730;41.932;25.548;2022-09-21T10:24:03;99083.22;;;24.58;43.86
3434;BME280;1730;41.932;25.548;2022-09-21T10:26:31;99091.19;;;24.54;41.39
3434;BME280;1730;41.932;25.548;2022-09-21T10:34:32;99074.31;;;23.77;42.36
3434;BME280;1730;41.932;25.548;2022-09-21T10:37:19;99051.31;;;23.44;43.79
3434;BME280;1730;41.932;25.548;2022-09-21T10:39:47;99059.97;;;23.24;45.16
3434;BME280;1730;41.932;25.548;2022-09-21T10:42:15;99034.53;;;22.94;43.63
3434;BME280;1730;41.932;25.548;2022-09-21T10:44:44;99067.25;;;22.48;45.73
3434;BME280;1730;41.932;25.548;2022-09-21T10:47:22;99070.47;;;22.69;44.46
3434;BME280;1730;41.932;25.548;2022-09-21T10:49:57;99079.81;;;22.56;44.55
3434;BME280;1730;41.932;25.548;2022-09-21T10:52:33;99015.75;;;22.32;44.67
3434;BME280;1730;41.932;25.548;2022-09-21T10:55:00;99067.66;;;23.62;42.90
3434;BME280;1730;41.932;25.548;2022-09-21T10:57:27;99063.50;;;23.48;43.61
3434;BME280;1730;41.932;25.548;2022-09-21T10:59:54;99069.38;;;24.69;43.88
3434;BME280;1730;41.932;25.548;2022-09-21T11:05:13;99052.69;;;23.06;42.38
3434;BME280;1730;41.932;25.548;2022-09-21T11:10:29;99050.25;;;24.30;43.66
3434;BME280;1730;41.932;25.548;2022-09-21T11:13:22;99037.00;;;24.98;42.77
3434;BME280;1730;41.932;25.548;2022-09-21T11:16:21;99035.81;;;23.94;41.44
3434;BME280;1730;41.932;25.548;2022-09-21T11:22:18;99032.00;;;22.69;42.47
3434;BME280;1730;41.932;25.548;2022-09-21T11:27:34;99034.44;;;24.42;40.94
3434;BME280;1730;41.932;25.548;2022-09-21T11:30:03;99031.34;;;24.72;41.91
3434;BME280;1730;41.932;25.548;2022-09-21T11:33:05;99026.19;;;25.35;39.52
3434;BME280;1730;41.932;25.548;2022-09-21T11:44:24;99021.94;;;24.17;37.83
3434;BME280;1730;41.932;25.548;2022-09-21T11:47:19;99017.91;;;24.42;38.50
3434;BME280;1730;41.932;25.548;2022-09-21T11:49:53;98976.28;;;24.60;42.57
3434;BME280;1730;41.932;25.548;2022-09-21T12:01:11;98953.84;;;24.18;36.64
3434;BME280;1730;41.932;25.548;2022-09-21T12:04:04;98993.69;;;24.99;37.91
3434;BME280;1730;41.932;25.548;2022-09-21T12:06:58;98974.50;;;25.79;36.39
3434;BME280;1730;41.932;25.548;2022-09-21T12:20:22;98998.66;;;25.19;34.66
3434;BME280;1730;41.932;25.548;2022-09-21T12:23:22;98971.16;;;24.30;35.74
3434;BME280;1730;41.932;25.548;2022-09-21T12:25:54;99021.94;;;25.28;36.87
3434;BME280;1730;41.932;25.548;2022-09-21T12:28:39;98556.44;;;22.85;36.40
3434;BME280;1730;41.932;25.548;2022-09-21T12:34:18;98983.97;;;24.58;36.34
3434;BME280;1730;41.932;25.548;2022-09-21T12:37:15;98967.50;;;23.96;36.94
3434;BME280;1730;41.932;25.548;2022-09-21T12:43:04;98965.91;;;24.00;36.13
3434;BME280;1730;41.932;25.548;2022-09-21T12:45:40;98967.28;;;24.48;35.07
3434;BME280;1730;41.932;25.548;2022-09-21T12:48:28;98958.56;;;25.38;36.59
3434;BME280;1730;41.932;25.548;2022-09-21T13:13:33;99037.53;;;21.92;47.09
3434;BME280;1730;41.932;25.548;2022-09-21T13:16:01;98986.69;;;21.42;49.53
3434;BME280;1730;41.932;25.548;2022-09-21T13:21:00;98511.41;;;17.82;53.29
3434;BME280;1730;41.932;25.548;2022-09-21T13:23:37;98990.81;;;20.42;54.49
3434;BME280;1730;41.932;25.548;2022-09-21T13:26:10;98815.97;;;19.03;55.15
3434;BME280;1730;41.932;25.548;2022-09-21T13:47:42;99007.19;;;19.67;73.13
3434;BME280;1730;41.932;25.548;2022-09-21T13:50:11;99031.97;;;19.34;71.84
3434;BME280;1730;41.932;25.548;2022-09-21T13:52:46;99038.00;;;19.50;72.96
3434;BME280;1730;41.932;25.548;2022-09-21T13:55:36;98888.63;;;18.79;76.19
3434;BME280;1730;41.932;25.548;2022-09-21T13:58:19;99074.25;;;19.32;81.37
3434;BME280;1730;41.932;25.548;2022-09-21T14:06:02;99074.44;;;18.53;100.00
3434;BME280;1730;41.932;25.548;2022-09-21T14:08:33;99026.97;;;18.15;100.00
3434;BME280;1730;41.932;25.548;2022-09-21T14:11:01;99026.72;;;17.83;100.00
3434;BME280;1730;41.932;25.548;2022-09-21T14:18:52;99072.91;;;17.85;100.00
3434;BME280;1730;41.932;25.548;2022-09-21T14:21:18;99056.53;;;17.91;100.00
3434;BME280;1730;41.932;25.548;2022-09-21T14:26:34;99063.69;;;18.52;100.00
3434;BME280;1730;41.932;25.548;2022-09-21T14:31:53;99101.69;;;18.07;100.00
3434;BME280;1730;41.932;25.548;2022-09-21T14:34:26;99054.03;;;18.10;100.00
3434;BME280;1730;41.932;25.548;2022-09-21T14:36:56;99040.41;;;18.03;100.00
3434;BME280;1730;41.932;25.548;2022-09-21T14:39:40;99043.94;;;17.90;100.00
3434;BME280;1730;41.932;25.548;2022-09-21T14:42:18;98852.69;;;16.80;100.00
3434;BME280;1730;41.932;25.548;2022-09-21T14:44:48;99026.94;;;18.01;100.00
3434;BME280;1730;41.932;25.548;2022-09-21T14:56:03;99041.03;;;18.12;100.00
3434;BME280;1730;41.932;25.548;2022-09-21T15:04:22;99068.53;;;18.23;100.00
3434;BME280;1730;41.932;25.548;2022-09-21T15:12:59;99096.88;;;17.48;100.00
3434;BME280;1730;41.932;25.548;2022-09-21T15:15:38;99106.69;;;17.36;100.00
3434;BME280;1730;41.932;25.548;2022-09-21T15:18:24;99205.41;;;17.32;100.00
3434;BME280;1730;41.932;25.548;2022-09-21T15:20:58;99201.22;;;16.74;100.00
3434;BME280;1730;41.932;25.548;2022-09-21T15:23:37;99076.22;;;15.30;100.00
3434;BME280;1730;41.932;25.548;2022-09-21T15:26:14;99245.22;;;15.40;100.00
3434;BME280;1730;41.932;25.548;2022-09-21T15:28:49;99297.38;;;14.83;100.00
3434;BME280;1730;41.932;25.548;2022-09-21T15:31:17;99090.31;;;13.24;100.00
3434;BME280;1730;41.932;25.548;2022-09-21T15:33:44;99209.81;;;13.21;100.00
3434;BME280;1730;41.932;25.548;2022-09-21T15:36:19;99304.03;;;13.41;100.00
3434;BME280;1730;41.932;25.548;2022-09-21T15:39:25;99520.63;;;14.55;100.00
3434;BME280;1730;41.932;25.548;2022-09-21T15:44:36;99663.91;;;14.35;100.00
3434;BME280;1730;41.932;25.548;2022-09-21T15:47:11;99506.66;;;13.54;100.00
3434;BME280;1730;41.932;25.548;2022-09-21T15:49:38;99699.38;;;14.74;100.00
3434;BME280;1730;41.932;25.548;2022-09-21T15:57:47;99616.06;;;15.60;100.00
3434;BME280;1730;41.932;25.548;2022-09-21T16:03:23;99563.19;;;15.32;100.00
3434;BME280;1730;41.932;25.548;2022-09-21T16:08:35;99538.66;;;15.48;100.00
3434;BME280;1730;41.932;25.548;2022-09-21T16:11:17;99593.31;;;15.61;100.00
3434;BME280;1730;41.932;25.548;2022-09-21T16:21:27;99659.09;;;15.57;100.00
3434;BME280;1730;41.932;25.548;2022-09-21T16:24:18;99479.75;;;14.56;100.00
3434;BME280;1730;41.932;25.548;2022-09-21T16:27:01;99673.47;;;15.65;100.00
3434;BME280;1730;41.932;25.548;2022-09-21T16:29:54;99695.87;;;15.67;100.00
3434;BME280;1730;41.932;25.548;2022-09-21T16:32:34;99673.75;;;15.78;100.00
3434;BME280;1730;41.932;25.548;2022-09-21T16:35:23;99484.75;;;15.06;100.00
3434;BME280;1730;41.932;25.548;2022-09-21T16:37:59;99676.53;;;15.93;100.00
3434;BME280;1730;41.932;25.548;2022-09-21T16:43:00;99696.59;;;16.15;100.00
3434;BME280;1730;41.932;25.548;2022-09-21T16:45:30;99615.88;;;15.23;100.00
3434;BME280;1730;41.932;25.548;2022-09-21T16:47:59;99656.56;;;15.78;100.00
3434;BME280;1730;41.932;25.548;2022-09-21T16:50:26;99612.28;;;15.69;100.00
3434;BME280;1730;41.932;25.548;2022-09-21T16:52:52;99491.53;;;14.71;100.00
3434;BME280;1730;41.932;25.548;2022-09-21T16:55:18;99422.78;;;14.79;100.00
3434;BME280;1730;41.932;25.548;2022-09-21T16:57:44;99387.28;;;14.58;100.00
3434;BME280;1730;41.932;25.548;2022-09-21T17:00:15;99560.00;;;15.59;100.00
3434;BME280;1730;41.932;25.548;2022-09-21T17:02:47;99535.91;;;15.25;100.00
3434;BME280;1730;41.932;25.548;2022-09-21T17:05:14;99263.81;;;13.61;100.00
3434;BME280;1730;41.932;25.548;2022-09-21T17:07:52;99569.00;;;15.29;100.00
3434;BME280;1730;41.932;25.548;2022-09-21T17:10:19;99598.41;;;15.25;100.00
3434;BME280;1730;41.932;25.548;2022-09-21T17:12:47;99589.41;;;15.25;100.00
3434;BME280;1730;41.932;25.548;2022-09-21T17:17:49;99631.31;;;14.92;100.00
3434;BME280;1730;41.932;25.548;2022-09-21T17:20:33;99671.34;;;14.89;100.00
3434;BME280;1730;41.932;25.548;2022-09-21T17:23:00;99702.59;;;14.77;100.00
3434;BME280;1730;41.932;25.548;2022-09-21T17:25:31;99709.75;;;14.54;100.00
3434;BME280;1730;41.932;25.548;2022-09-21T17:28:00;99756.87;;;14.94;100.00
3434;BME280;1730;41.932;25.548;2022-09-21T17:30:33;99761.97;;;15.13;100.00
3434;BME280;1730;41.932;25.548;2022-09-21T17:32:59;99743.28;;;15.02;100.00
3434;BME280;1730;41.932;25.548;2022-09-21T17:35:35;99604.25;;;14.11;100.00
3434;BME280;1730;41.932;25.548;2022-09-21T17:38:01;99539.38;;;13.69;100.00
3434;BME280;1730;41.932;25.548;2022-09-21T17:40:27;99735.13;;;15.10;100.00
3434;BME280;1730;41.932;25.548;2022-09-21T17:43:18;99656.47;;;14.69;100.00